createdAt,value
2024-02-08T00:00:47.662Z,6.70
2024-02-08T00:03:36.549Z,8.20
2024-02-08T00:06:07.628Z,7.50
2024-02-08T00:08:36.538Z,7.30
2024-02-08T00:11:07.290Z,11.50
2024-02-08T00:13:36.539Z,7.50
2024-02-08T00:16:07.925Z,8.90
2024-02-08T00:18:37.488Z,7.30
2024-02-08T00:21:11.479Z,8.50
2024-02-08T00:24:01.217Z,10.70
2024-02-08T00:26:29.798Z,7.30
2024-02-08T00:29:01.664Z,6.10
2024-02-08T00:31:38.037Z,6.70
2024-02-08T00:34:30.457Z,8.60
2024-02-08T00:37:01.410Z,8.60
2024-02-08T00:39:32.638Z,9.10
2024-02-08T00:42:01.120Z,9.00
2024-02-08T00:44:52.754Z,6.00
2024-02-08T00:47:21.243Z,8.40
2024-02-08T00:49:49.956Z,8.20
2024-02-08T00:52:19.777Z,7.20
2024-02-08T00:54:51.387Z,8.40
2024-02-08T00:57:19.746Z,7.30
2024-02-08T00:59:48.215Z,8.20
2024-02-08T01:02:16.570Z,8.00
2024-02-08T01:04:50.563Z,7.70
2024-02-08T01:07:19.330Z,8.60
2024-02-08T01:09:47.672Z,10.30
2024-02-08T01:12:16.142Z,6.70
2024-02-08T01:14:44.509Z,7.20
2024-02-08T01:17:13.523Z,10.90
2024-02-08T01:19:42.046Z,8.20
2024-02-08T01:22:12.483Z,8.90
2024-02-08T01:24:41.954Z,7.20
2024-02-08T01:27:10.281Z,7.60
2024-02-08T01:29:38.408Z,8.90
2024-02-08T01:32:07.214Z,8.60
2024-02-08T01:34:35.684Z,7.30
2024-02-08T01:37:04.935Z,7.60
2024-02-08T01:39:35.663Z,10.50
2024-02-08T01:42:13.365Z,7.70
2024-02-08T01:44:47.952Z,9.10
2024-02-08T01:47:19.419Z,8.10
2024-02-08T01:50:10.549Z,7.60
2024-02-08T01:55:19.231Z,9.60
2024-02-08T01:57:52.856Z,6.90
2024-02-08T02:00:24.393Z,8.50
2024-02-08T02:03:02.388Z,8.60
2024-02-08T02:05:56.533Z,13.70
2024-02-08T02:08:34.419Z,8.10
2024-02-08T02:11:20.641Z,8.40
2024-02-08T02:13:52.434Z,7.20
2024-02-08T02:16:24.535Z,14.50
2024-02-08T02:18:55.313Z,6.60
2024-02-08T02:21:24.335Z,7.90
2024-02-08T02:23:53.370Z,8.80
2024-02-08T02:26:23.431Z,9.70
2024-02-08T02:28:52.867Z,8.50
2024-02-08T02:31:25.279Z,7.50
2024-02-08T02:33:54.615Z,8.90
2024-02-08T02:36:23.761Z,8.60
2024-02-08T02:38:52.719Z,8.60
2024-02-08T02:41:26.356Z,9.60
2024-02-08T02:43:55.346Z,12.50
2024-02-08T02:46:24.107Z,10.40
2024-02-08T02:48:53.206Z,8.00
2024-02-08T02:51:27.729Z,8.90
2024-02-08T02:53:55.955Z,7.70
2024-02-08T02:56:24.280Z,13.80
2024-02-08T02:58:53.232Z,12.70
2024-02-08T03:01:23.048Z,8.80
2024-02-08T03:03:52.503Z,10.00
2024-02-08T03:06:21.023Z,8.40
2024-02-08T03:08:49.405Z,9.20
2024-02-08T03:11:17.670Z,8.30
2024-02-08T03:13:51.459Z,7.70
2024-02-08T03:16:27.607Z,7.60
2024-02-08T03:18:58.091Z,10.40
2024-02-08T03:21:26.540Z,9.70
2024-02-08T03:23:58.291Z,9.00
2024-02-08T03:26:27.341Z,8.70
2024-02-08T03:28:55.966Z,10.00
2024-02-08T03:31:27.448Z,13.40
2024-02-08T03:33:55.855Z,18.10
2024-02-08T03:36:25.239Z,21.20
2024-02-08T03:38:54.216Z,17.10
2024-02-08T03:41:22.829Z,12.70
2024-02-08T03:43:54.125Z,14.70
2024-02-08T03:46:22.470Z,9.50
2024-02-08T03:48:51.526Z,9.00
2024-02-08T03:51:20.534Z,10.40
2024-02-08T03:53:49.024Z,9.70
2024-02-08T03:56:17.858Z,8.70
2024-02-08T03:58:48.059Z,9.10
2024-02-08T04:01:16.690Z,8.60
2024-02-08T04:03:54.184Z,10.40
2024-02-08T04:06:35.162Z,9.70
2024-02-08T04:09:17.857Z,10.90
2024-02-08T04:12:05.322Z,15.90
2024-02-08T04:14:53.496Z,12.90
2024-02-08T04:17:35.787Z,9.70
2024-02-08T04:20:16.106Z,11.90
2024-02-08T04:22:56.222Z,9.30
2024-02-08T04:25:46.262Z,8.60
2024-02-08T04:29:35.048Z,10.10
2024-02-08T04:32:46.766Z,15.20
2024-02-08T04:36:16.808Z,11.40
2024-02-08T04:39:47.056Z,9.00
2024-02-08T04:42:47.171Z,9.40
2024-02-08T04:46:07.485Z,9.60
2024-02-08T04:49:08.129Z,10.60
2024-02-08T04:52:20.656Z,11.30
2024-02-08T04:55:25.257Z,11.30
2024-02-08T04:59:06.877Z,10.30
2024-02-08T05:02:01.081Z,15.60
2024-02-08T05:04:37.958Z,9.30
2024-02-08T05:07:27.882Z,10.10
2024-02-08T05:10:10.213Z,9.60
2024-02-08T05:13:09.007Z,17.80
2024-02-08T05:15:57.919Z,11.50
2024-02-08T05:18:29.944Z,11.20
2024-02-08T05:20:58.601Z,9.70
2024-02-08T05:23:27.002Z,10.80
2024-02-08T05:25:59.615Z,9.80
2024-02-08T05:28:31.162Z,10.20
2024-02-08T05:31:07.028Z,11.90
2024-02-08T05:33:53.764Z,10.60
2024-02-08T05:37:02.715Z,11.00
2024-02-08T05:39:49.424Z,12.20
2024-02-08T05:43:02.576Z,10.40
2024-02-08T05:45:34.181Z,11.00
2024-02-08T05:48:07.552Z,9.60
2024-02-08T05:50:45.578Z,11.70
2024-02-08T05:53:17.051Z,11.80
2024-02-08T05:55:49.232Z,13.30
2024-02-08T05:58:20.344Z,11.30
2024-02-08T06:01:02.789Z,9.50
2024-02-08T06:03:39.154Z,11.60
2024-02-08T06:06:17.352Z,10.20
2024-02-08T06:08:47.863Z,8.80
2024-02-08T06:11:19.515Z,9.00
2024-02-08T06:13:56.025Z,10.30
2024-02-08T06:16:34.532Z,10.60
2024-02-08T06:19:05.863Z,13.00
2024-02-08T06:21:41.958Z,11.90
2024-02-08T06:24:25.927Z,12.20
2024-02-08T06:26:57.363Z,10.00
2024-02-08T06:29:28.497Z,11.80
2024-02-08T06:32:13.594Z,10.60
2024-02-08T06:34:48.490Z,11.90
2024-02-08T06:37:28.037Z,13.20
2024-02-08T06:39:59.266Z,9.20
2024-02-08T06:42:47.168Z,10.50
2024-02-08T06:45:27.434Z,10.70
2024-02-08T06:47:58.773Z,10.30
2024-02-08T06:50:47.581Z,11.70
2024-02-08T06:53:27.737Z,9.70
2024-02-08T06:56:07.911Z,11.70
2024-02-08T06:58:53.983Z,8.40
2024-02-08T07:01:34.166Z,16.20
2024-02-08T07:04:14.368Z,10.90
2024-02-08T07:06:54.344Z,11.80
2024-02-08T07:09:34.476Z,11.80
2024-02-08T07:12:14.375Z,12.90
2024-02-08T07:14:54.504Z,10.00
2024-02-08T07:17:34.780Z,10.50
2024-02-08T07:20:14.982Z,10.80
2024-02-08T07:22:55.134Z,12.00
2024-02-08T07:25:35.409Z,13.00
2024-02-08T07:28:15.535Z,11.70
2024-02-08T07:30:58.003Z,18.80
2024-02-08T07:33:45.978Z,11.50
2024-02-08T07:36:26.248Z,12.50
2024-02-08T07:39:16.418Z,12.10
2024-02-08T07:41:55.178Z,12.30
2024-02-08T07:44:24.958Z,9.00
2024-02-08T07:46:56.381Z,11.20
2024-02-08T07:49:42.795Z,16.20
2024-02-08T07:52:20.175Z,10.20
2024-02-08T07:54:57.846Z,10.60
2024-02-08T07:57:27.940Z,10.00
2024-02-08T07:59:59.710Z,10.20
2024-02-08T08:02:30.687Z,11.10
2024-02-08T08:05:00.120Z,12.90
2024-02-08T08:07:28.625Z,10.30
2024-02-08T08:10:14.912Z,11.50
2024-02-08T08:12:48.371Z,9.20
2024-02-08T08:15:18.187Z,10.00
2024-02-08T08:18:01.815Z,15.00
2024-02-08T08:20:49.051Z,11.00
2024-02-08T08:23:27.432Z,11.10
2024-02-08T08:26:09.396Z,10.60
2024-02-08T08:28:42.272Z,13.30
2024-02-08T08:31:29.779Z,8.10
2024-02-08T08:34:02.394Z,10.90
2024-02-08T08:36:30.977Z,10.00
2024-02-08T08:39:09.936Z,12.80
2024-02-08T08:41:46.458Z,10.20
2024-02-08T08:45:06.343Z,12.50
2024-02-08T08:48:02.622Z,9.70
2024-02-08T08:51:41.319Z,8.50
2024-02-08T08:54:30.121Z,9.30
2024-02-08T08:57:26.646Z,8.70
2024-02-08T09:00:10.805Z,10.40
2024-02-08T09:03:06.011Z,9.50
2024-02-08T09:06:04.100Z,8.20
2024-02-08T09:09:00.014Z,9.10
2024-02-08T09:11:51.231Z,9.70
2024-02-08T09:14:54.182Z,6.80
2024-02-08T09:17:26.882Z,18.00
2024-02-08T09:20:00.570Z,13.70
2024-02-08T09:22:41.472Z,9.80
2024-02-08T09:25:27.374Z,8.80
2024-02-08T09:28:27.035Z,7.20
2024-02-08T09:30:59.641Z,8.20
2024-02-08T09:33:32.165Z,10.40
2024-02-08T09:36:01.084Z,8.00
2024-02-08T09:38:44.979Z,6.80
2024-02-08T09:41:39.990Z,8.10
2024-02-08T09:44:30.066Z,9.10
2024-02-08T09:47:09.192Z,6.90
2024-02-08T09:49:43.935Z,7.80
2024-02-08T09:52:55.700Z,9.40
2024-02-08T09:56:11.359Z,8.60
2024-02-08T09:59:05.219Z,7.70
2024-02-08T10:01:45.234Z,8.00
2024-02-08T10:04:17.749Z,7.40
2024-02-08T10:07:07.028Z,6.90
2024-02-08T10:09:47.929Z,7.50
2024-02-08T10:12:22.079Z,7.30
2024-02-08T10:15:02.082Z,8.10
2024-02-08T10:17:53.592Z,9.30
2024-02-08T10:20:33.495Z,10.50
2024-02-08T10:23:24.436Z,10.90
2024-02-08T10:26:13.141Z,10.70
2024-02-08T10:28:43.050Z,6.20
2024-02-08T10:31:23.664Z,8.30
2024-02-08T10:34:10.924Z,6.70
2024-02-08T10:36:46.914Z,7.90
2024-02-08T10:42:02.902Z,6.50
2024-02-08T10:44:35.582Z,8.20
2024-02-08T10:47:08.413Z,8.20
2024-02-08T10:49:48.684Z,7.10
2024-02-08T10:52:22.879Z,6.10
2024-02-08T10:54:57.640Z,6.70
2024-02-08T10:57:46.977Z,7.30
2024-02-08T11:00:37.613Z,6.90
2024-02-08T11:03:10.288Z,7.90
2024-02-08T11:05:56.366Z,6.40
2024-02-08T11:08:26.438Z,6.60
2024-02-08T11:11:00.492Z,6.80
2024-02-08T11:13:38.957Z,6.30
2024-02-08T11:16:21.961Z,7.00
2024-02-08T11:18:54.549Z,6.60
2024-02-08T11:21:44.132Z,6.60
2024-02-08T11:24:37.510Z,6.90
2024-02-08T11:27:07.687Z,8.50
2024-02-08T11:29:46.813Z,8.30
2024-02-08T11:32:20.241Z,6.10
2024-02-08T11:34:56.335Z,6.00
2024-02-08T11:37:32.100Z,6.30
2024-02-08T11:40:03.082Z,6.70
2024-02-08T11:42:38.630Z,9.30
2024-02-08T11:45:10.671Z,6.70
2024-02-08T11:47:42.372Z,6.40
2024-02-08T11:50:22.315Z,6.10
2024-02-08T11:52:59.086Z,5.60
2024-02-08T11:55:30.341Z,5.50
2024-02-08T11:57:59.826Z,6.00
2024-02-08T12:00:31.641Z,7.70
2024-02-08T12:03:02.977Z,7.30
2024-02-08T12:05:35.520Z,5.60
2024-02-08T12:10:40.057Z,5.70
2024-02-08T12:13:14.339Z,5.80
2024-02-08T12:15:57.509Z,6.40
2024-02-08T12:18:29.121Z,6.30
2024-02-08T12:21:03.378Z,5.70
2024-02-08T12:23:33.172Z,7.10
2024-02-08T12:26:05.608Z,5.30
2024-02-08T12:28:40.345Z,9.60
2024-02-08T12:31:20.738Z,6.00
2024-02-08T12:33:53.771Z,7.20
2024-02-08T12:36:25.638Z,9.20
2024-02-08T12:38:57.310Z,11.30
2024-02-08T12:41:25.870Z,5.00
2024-02-08T12:43:54.656Z,6.10
2024-02-08T12:46:23.820Z,6.70
2024-02-08T12:48:52.968Z,5.80
2024-02-08T12:51:24.676Z,5.20
2024-02-08T12:54:05.431Z,5.00
2024-02-08T12:56:35.737Z,5.70
2024-02-08T12:59:06.467Z,6.70
2024-02-08T13:01:45.651Z,7.70
2024-02-08T13:04:19.240Z,12.20
2024-02-08T13:06:51.917Z,6.20
2024-02-08T13:09:32.027Z,5.00
2024-02-08T13:12:16.214Z,4.00
2024-02-08T13:14:58.375Z,8.00
2024-02-08T13:17:27.933Z,9.50
2024-02-08T13:19:59.635Z,6.00
2024-02-08T13:22:35.604Z,3.90
2024-02-08T13:25:04.579Z,3.90
2024-02-08T13:27:35.618Z,5.30
2024-02-08T13:30:15.729Z,5.90
2024-02-08T13:32:52.711Z,3.70
2024-02-08T13:35:24.667Z,3.30
2024-02-08T13:37:55.850Z,3.20
2024-02-08T13:40:26.869Z,3.20
2024-02-08T13:43:00.693Z,3.90
2024-02-08T13:45:40.153Z,3.90
2024-02-08T13:48:14.617Z,8.40
2024-02-08T13:50:45.381Z,3.70
2024-02-08T13:53:16.565Z,3.10
2024-02-08T13:55:55.689Z,3.80
2024-02-08T13:58:27.561Z,5.50
2024-02-08T14:00:59.586Z,3.20
2024-02-08T14:03:31.838Z,3.90
2024-02-08T14:06:04.235Z,3.20
2024-02-08T14:08:48.220Z,5.90
2024-02-08T14:11:21.275Z,5.30
2024-02-08T14:14:00.317Z,3.70
2024-02-08T14:16:38.498Z,3.50
2024-02-08T14:19:12.841Z,6.30
2024-02-08T14:22:07.778Z,4.60
2024-02-08T14:24:39.965Z,3.70
2024-02-08T14:27:11.764Z,7.40
2024-02-08T14:29:45.898Z,3.90
2024-02-08T14:32:36.663Z,3.40
2024-02-08T14:35:17.434Z,4.30
2024-02-08T14:37:53.581Z,2.80
2024-02-08T14:40:30.343Z,3.30
2024-02-08T14:43:39.492Z,3.60
2024-02-08T14:46:38.267Z,3.20
2024-02-08T14:49:18.799Z,3.30
2024-02-08T14:51:52.448Z,4.70
2024-02-08T14:57:06.184Z,3.10
2024-02-08T14:59:54.577Z,2.80
2024-02-08T15:02:30.978Z,3.50
2024-02-08T15:05:03.514Z,2.70
2024-02-08T15:07:57.700Z,3.30
2024-02-08T15:10:44.853Z,2.60
2024-02-08T15:13:19.830Z,2.80
2024-02-08T15:15:51.778Z,2.70
2024-02-08T15:18:31.585Z,7.80
2024-02-08T15:21:01.406Z,2.90
2024-02-08T15:23:33.845Z,3.10
2024-02-08T15:26:14.976Z,5.80
2024-02-08T15:28:57.207Z,3.30
2024-02-08T15:31:45.737Z,3.50
2024-02-08T15:34:39.469Z,4.20
2024-02-08T15:37:31.921Z,4.60
2024-02-08T15:40:23.689Z,4.20
2024-02-08T15:42:52.382Z,4.20
2024-02-08T15:45:42.377Z,5.50
2024-02-08T15:48:36.880Z,3.30
2024-02-08T15:51:29.798Z,4.40
2024-02-08T15:54:08.368Z,4.00
2024-02-08T15:56:44.183Z,3.30
2024-02-08T15:59:41.176Z,4.60
2024-02-08T16:02:53.156Z,5.30
2024-02-08T16:05:30.376Z,4.50
2024-02-08T16:08:19.160Z,5.00
2024-02-08T16:11:31.503Z,5.40
2024-02-08T16:14:07.009Z,7.00
2024-02-08T16:17:33.455Z,6.50
2024-02-08T16:20:09.921Z,7.00
2024-02-08T16:23:03.605Z,5.90
2024-02-08T16:25:46.094Z,5.80
2024-02-08T16:28:42.444Z,5.30
2024-02-08T16:31:26.013Z,5.70
2024-02-08T16:36:46.164Z,9.30
2024-02-08T16:39:31.180Z,6.60
2024-02-08T16:42:01.783Z,6.50
2024-02-08T16:44:36.546Z,6.10
2024-02-08T16:47:25.814Z,6.20
2024-02-08T16:50:24.178Z,6.00
2024-02-08T16:53:05.267Z,8.70
2024-02-08T16:55:45.032Z,6.00
2024-02-08T16:58:30.259Z,6.60
2024-02-08T17:01:18.483Z,9.60
2024-02-08T17:04:10.217Z,15.40
2024-02-08T17:06:54.133Z,18.90
2024-02-08T17:09:26.345Z,16.10
2024-02-08T17:14:39.657Z,7.20
2024-02-08T17:17:15.371Z,8.40
2024-02-08T17:19:59.524Z,22.70
2024-02-08T17:22:40.601Z,26.70
2024-02-08T17:25:26.185Z,24.70
2024-02-08T17:28:14.864Z,20.10
2024-02-08T17:30:54.014Z,43.30
2024-02-08T17:35:56.911Z,43.10
2024-02-08T17:38:29.913Z,44.70
2024-02-08T17:46:10.430Z,7.70
2024-02-08T17:48:40.769Z,7.50
2024-02-08T17:51:12.417Z,7.10
2024-02-08T17:53:46.014Z,7.10
2024-02-08T17:56:18.741Z,8.70
2024-02-08T17:58:49.128Z,6.60
2024-02-08T18:01:18.277Z,7.30
2024-02-08T18:03:47.965Z,6.90
2024-02-08T18:06:18.698Z,7.10
2024-02-08T18:08:48.976Z,6.00
2024-02-08T18:11:19.003Z,6.70
2024-02-08T18:13:50.777Z,9.60
2024-02-08T18:16:20.322Z,6.10
2024-02-08T18:18:48.943Z,6.10
2024-02-08T18:21:35.151Z,7.80
2024-02-08T18:24:07.195Z,14.70
2024-02-08T18:26:36.519Z,13.70
2024-02-08T18:29:06.409Z,14.10
2024-02-08T18:31:36.322Z,12.90
2024-02-08T18:34:09.971Z,11.30
2024-02-08T18:36:46.712Z,16.20
2024-02-08T18:39:28.653Z,15.20
2024-02-08T18:41:59.670Z,18.10
2024-02-08T18:44:34.230Z,14.10
2024-02-08T18:47:10.105Z,10.80
2024-02-08T18:49:39.800Z,23.70
2024-02-08T18:52:09.217Z,15.70
2024-02-08T18:54:45.568Z,12.00
2024-02-08T18:57:13.783Z,13.70
2024-02-08T18:59:46.391Z,22.00
2024-02-08T19:02:17.976Z,26.30
2024-02-08T19:04:46.217Z,26.40
2024-02-08T19:07:14.697Z,26.50
2024-02-08T19:09:44.620Z,21.90
2024-02-08T19:12:13.815Z,18.40
2024-02-08T19:14:44.141Z,15.10
2024-02-08T19:17:14.840Z,13.60
2024-02-08T19:19:46.413Z,15.80
2024-02-08T19:22:17.679Z,14.20
2024-02-08T19:24:47.947Z,11.30
2024-02-08T19:27:16.346Z,13.40
2024-02-08T19:29:45.318Z,10.60
2024-02-08T19:32:20.573Z,12.50
2024-02-08T19:34:55.395Z,13.00
2024-02-08T19:37:26.117Z,11.80
2024-02-08T19:39:55.767Z,9.90
2024-02-08T19:42:24.305Z,10.70
2024-02-08T19:44:57.006Z,11.50
2024-02-08T19:47:56.130Z,12.20
2024-02-08T19:50:39.020Z,10.00
2024-02-08T19:53:11.525Z,12.30
2024-02-08T19:56:09.135Z,11.00
2024-02-08T19:58:48.440Z,11.80
2024-02-08T20:01:23.786Z,11.10
2024-02-08T20:03:53.695Z,14.30
2024-02-08T20:06:28.748Z,14.10
2024-02-08T20:09:01.168Z,12.40
2024-02-08T20:11:29.605Z,13.00
2024-02-08T20:14:07.897Z,12.60
2024-02-08T20:16:55.149Z,11.20
2024-02-08T20:19:31.993Z,14.10
2024-02-08T20:22:43.059Z,12.30
2024-02-08T20:25:41.844Z,11.50
2024-02-08T20:28:10.696Z,10.50
2024-02-08T20:30:39.890Z,13.20
2024-02-08T20:33:17.302Z,11.20
2024-02-08T20:35:56.893Z,13.60
2024-02-08T20:38:28.929Z,15.60
2024-02-08T20:41:26.092Z,18.00
2024-02-08T20:44:11.882Z,12.40
2024-02-08T20:47:13.020Z,15.30
2024-02-08T20:50:15.739Z,10.60
2024-02-08T20:53:34.121Z,10.20
2024-02-08T20:56:29.404Z,8.30
2024-02-08T20:59:18.498Z,11.60
2024-02-08T21:01:58.190Z,19.10
2024-02-08T21:05:09.280Z,9.10
2024-02-08T21:11:39.609Z,11.30
2024-02-08T21:14:44.205Z,11.20
2024-02-08T21:17:36.114Z,10.10
2024-02-08T21:20:48.401Z,10.50
2024-02-08T21:23:56.563Z,11.20
2024-02-08T21:27:07.470Z,11.30
2024-02-08T21:30:47.736Z,12.90
2024-02-08T21:33:57.951Z,15.50
2024-02-08T21:37:07.032Z,10.40
2024-02-08T21:40:47.411Z,11.00
2024-02-08T21:44:10.219Z,9.60
2024-02-08T21:47:30.568Z,10.80
2024-02-08T21:51:14.307Z,14.50
2024-02-08T21:54:59.925Z,9.80
2024-02-08T22:25:45.955Z,10.60
2024-02-08T22:29:01.376Z,12.60
2024-02-08T22:31:51.014Z,10.00
2024-02-08T22:34:20.685Z,12.60
2024-02-08T22:36:49.651Z,15.70
2024-02-08T22:39:18.160Z,12.30
2024-02-08T22:41:49.166Z,20.00
2024-02-08T22:44:18.692Z,16.20
2024-02-08T22:46:47.037Z,9.60
2024-02-08T22:49:15.921Z,9.40
2024-02-08T22:51:48.572Z,9.50
2024-02-08T22:54:18.355Z,11.90
2024-02-08T22:56:51.091Z,10.00
2024-02-08T22:59:21.207Z,14.30
2024-02-08T23:02:17.122Z,11.40
2024-02-08T23:05:19.745Z,13.10
2024-02-08T23:08:16.092Z,38.70
2024-02-08T23:11:44.333Z,43.80
2024-02-08T23:14:33.403Z,92.00
2024-02-08T23:17:26.105Z,47.10
2024-02-08T23:20:22.772Z,24.30
2024-02-08T23:23:13.780Z,17.40
2024-02-08T23:25:56.191Z,25.60
2024-02-08T23:29:10.387Z,14.80
2024-02-08T23:32:41.917Z,10.00
2024-02-08T23:35:40.658Z,10.50
2024-02-08T23:39:13.074Z,12.60
2024-02-08T23:42:50.860Z,10.40
2024-02-08T23:46:03.116Z,8.80
2024-02-08T23:49:12.246Z,12.90
2024-02-08T23:52:20.852Z,12.20
2024-02-08T23:55:33.211Z,12.00
2024-02-08T23:58:54.247Z,10.80
